sensor_id;sensor_type;location;lat;lon;timestamp;temperature;humidity
43227;DHT22;28839;52.404;9.808;2022-09-09T00:01:03;14.40;99.90
43227;DHT22;28839;52.404;9.808;2022-09-09T00:08:03;14.30;99.90
43227;DHT22;28839;52.404;9.808;2022-09-09T00:15:02;14.20;99.90
43227;DHT22;28839;52.404;9.808;2022-09-09T00:22:06;14.30;99.90
43227;DHT22;28839;52.404;9.808;2022-09-09T00:29:21;14.20;99.90
43227;DHT22;28839;52.404;9.808;2022-09-09T00:36:21;14.00;99.90
43227;DHT22;28839;52.404;9.808;2022-09-09T00:43:27;14.30;99.90
43227;DHT22;28839;52.404;9.808;2022-09-09T00:50:35;14.30;99.90
43227;DHT22;28839;52.404;9.808;2022-09-09T00:57:31;14.30;99.90
43227;DHT22;28839;52.404;9.808;2022-09-09T01:04:29;14.10;99.90
43227;DHT22;28839;52.404;9.808;2022-09-09T01:11:33;14.00;99.90
43227;DHT22;28839;52.404;9.808;2022-09-09T01:18:33;13.90;99.90
43227;DHT22;28839;52.404;9.808;2022-09-09T01:25:30;13.80;99.90
43227;DHT22;28839;52.404;9.808;2022-09-09T01:32:41;13.70;99.90
43227;DHT22;28839;52.404;9.808;2022-09-09T01:39:37;13.70;99.90
43227;DHT22;28839;52.404;9.808;2022-09-09T01:46:32;13.60;99.90
43227;DHT22;28839;52.404;9.808;2022-09-09T01:53:27;13.40;99.90
43227;DHT22;28839;52.404;9.808;2022-09-09T02:00:21;13.60;99.90
43227;DHT22;28839;52.404;9.808;2022-09-09T02:07:31;13.50;99.90
43227;DHT22;28839;52.404;9.808;2022-09-09T02:14:32;13.40;99.90
43227;DHT22;28839;52.404;9.808;2022-09-09T02:21:28;13.40;99.90
43227;DHT22;28839;52.404;9.808;2022-09-09T02:28:24;13.30;99.90
43227;DHT22;28839;52.404;9.808;2022-09-09T02:35:23;13.40;99.90
43227;DHT22;28839;52.404;9.808;2022-09-09T02:42:18;13.40;99.90
43227;DHT22;28839;52.404;9.808;2022-09-09T02:49:18;13.30;99.90
43227;DHT22;28839;52.404;9.808;2022-09-09T02:56:16;13.20;99.90
43227;DHT22;28839;52.404;9.808;2022-09-09T03:03:11;13.30;99.90
43227;DHT22;28839;52.404;9.808;2022-09-09T03:10:05;13.40;99.90
43227;DHT22;28839;52.404;9.808;2022-09-09T03:17:01;13.50;99.90
43227;DHT22;28839;52.404;9.808;2022-09-09T03:23:55;13.60;99.90
43227;DHT22;28839;52.404;9.808;2022-09-09T03:30:49;13.80;99.90
43227;DHT22;28839;52.404;9.808;2022-09-09T03:37:44;13.70;99.90
43227;DHT22;28839;52.404;9.808;2022-09-09T03:44:38;13.80;99.90
43227;DHT22;28839;52.404;9.808;2022-09-09T03:51:32;13.80;99.90
43227;DHT22;28839;52.404;9.808;2022-09-09T03:58:30;13.90;99.90
43227;DHT22;28839;52.404;9.808;2022-09-09T04:05:24;13.90;99.90
43227;DHT22;28839;52.404;9.808;2022-09-09T04:12:18;13.90;99.90
43227;DHT22;28839;52.404;9.808;2022-09-09T04:19:13;14.10;99.90
43227;DHT22;28839;52.404;9.808;2022-09-09T04:26:07;14.00;99.90
43227;DHT22;28839;52.404;9.808;2022-09-09T04:33:01;14.00;99.90
43227;DHT22;28839;52.404;9.808;2022-09-09T04:39:56;14.00;99.90
43227;DHT22;28839;52.404;9.808;2022-09-09T04:46:54;13.90;99.90
43227;DHT22;28839;52.404;9.808;2022-09-09T04:53:48;14.10;99.90
43227;DHT22;28839;52.404;9.808;2022-09-09T05:00:44;14.00;99.90
43227;DHT22;28839;52.404;9.808;2022-09-09T05:07:38;14.10;99.90
43227;DHT22;28839;52.404;9.808;2022-09-09T05:14:32;14.10;99.90
43227;DHT22;28839;52.404;9.808;2022-09-09T05:21:30;14.20;99.90
43227;DHT22;28839;52.404;9.808;2022-09-09T05:28:24;14.20;99.90
43227;DHT22;28839;52.404;9.808;2022-09-09T05:35:19;14.30;99.90
43227;DHT22;28839;52.404;9.808;2022-09-09T05:42:14;14.40;99.90
43227;DHT22;28839;52.404;9.808;2022-09-09T05:49:08;14.50;99.90
43227;DHT22;28839;52.404;9.808;2022-09-09T05:56:04;14.70;99.90
43227;DHT22;28839;52.404;9.808;2022-09-09T06:02:59;14.60;99.90
43227;DHT22;28839;52.404;9.808;2022-09-09T06:09:53;14.50;99.90
43227;DHT22;28839;52.404;9.808;2022-09-09T06:16:48;14.60;99.90
43227;DHT22;28839;52.404;9.808;2022-09-09T06:23:44;14.80;99.90
43227;DHT22;28839;52.404;9.808;2022-09-09T06:30:38;14.80;99.90
43227;DHT22;28839;52.404;9.808;2022-09-09T06:37:32;14.90;99.90
43227;DHT22;28839;52.404;9.808;2022-09-09T06:44:27;14.90;99.90
43227;DHT22;28839;52.404;9.808;2022-09-09T06:51:25;15.20;99.90
43227;DHT22;28839;52.404;9.808;2022-09-09T06:58:19;15.10;99.90
43227;DHT22;28839;52.404;9.808;2022-09-09T07:05:15;15.40;99.90
43227;DHT22;28839;52.404;9.808;2022-09-09T07:12:09;15.90;99.90
43227;DHT22;28839;52.404;9.808;2022-09-09T07:19:05;16.30;99.90
43227;DHT22;28839;52.404;9.808;2022-09-09T07:26:01;16.50;99.90
43227;DHT22;28839;52.404;9.808;2022-09-09T07:32:55;17.30;99.90
43227;DHT22;28839;52.404;9.808;2022-09-09T07:39:51;17.50;99.90
43227;DHT22;28839;52.404;9.808;2022-09-09T07:46:47;17.90;99.90
43227;DHT22;28839;52.404;9.808;2022-09-09T07:53:40;18.30;99.90
43227;DHT22;28839;52.404;9.808;2022-09-09T08:00:34;18.50;99.90
43227;DHT22;28839;52.404;9.808;2022-09-09T08:07:30;18.50;99.90
43227;DHT22;28839;52.404;9.808;2022-09-09T08:14:24;19.00;99.90
43227;DHT22;28839;52.404;9.808;2022-09-09T08:21:20;18.80;99.90
43227;DHT22;28839;52.404;9.808;2022-09-09T08:28:15;18.60;99.90
43227;DHT22;28839;52.404;9.808;2022-09-09T08:35:09;18.80;99.90
43227;DHT22;28839;52.404;9.808;2022-09-09T08:42:35;18.90;99.90
43227;DHT22;28839;52.404;9.808;2022-09-09T08:49:47;18.70;99.90
43227;DHT22;28839;52.404;9.808;2022-09-09T08:56:43;18.50;99.90
43227;DHT22;28839;52.404;9.808;2022-09-09T09:03:43;18.90;99.90
43227;DHT22;28839;52.404;9.808;2022-09-09T09:10:47;19.00;99.90
43227;DHT22;28839;52.404;9.808;2022-09-09T09:17:42;19.10;99.90
43227;DHT22;28839;52.404;9.808;2022-09-09T09:24:43;19.20;99.90
43227;DHT22;28839;52.404;9.808;2022-09-09T09:31:42;19.20;99.90
43227;DHT22;28839;52.404;9.808;2022-09-09T09:38:38;19.20;99.90
43227;DHT22;28839;52.404;9.808;2022-09-09T09:45:33;19.20;99.90
43227;DHT22;28839;52.404;9.808;2022-09-09T09:52:30;19.50;99.90
43227;DHT22;28839;52.404;9.808;2022-09-09T09:59:34;19.70;99.90
43227;DHT22;28839;52.404;9.808;2022-09-09T10:06:32;19.80;99.90
43227;DHT22;28839;52.404;9.808;2022-09-09T10:13:33;19.80;99.90
43227;DHT22;28839;52.404;9.808;2022-09-09T10:20:35;19.80;99.90
43227;DHT22;28839;52.404;9.808;2022-09-09T10:27:38;19.90;99.90
43227;DHT22;28839;52.404;9.808;2022-09-09T10:34:50;20.00;99.90
43227;DHT22;28839;52.404;9.808;2022-09-09T10:41:55;20.30;99.90
43227;DHT22;28839;52.404;9.808;2022-09-09T10:49:05;19.80;99.90
43227;DHT22;28839;52.404;9.808;2022-09-09T10:56:06;19.80;99.90
43227;DHT22;28839;52.404;9.808;2022-09-09T11:03:02;19.40;99.90
43227;DHT22;28839;52.404;9.808;2022-09-09T11:10:01;19.40;99.90
43227;DHT22;28839;52.404;9.808;2022-09-09T11:17:00;19.50;99.90
43227;DHT22;28839;52.404;9.808;2022-09-09T11:23:58;19.60;99.90
43227;DHT22;28839;52.404;9.808;2022-09-09T11:31:04;19.30;99.90
43227;DHT22;28839;52.404;9.808;2022-09-09T11:38:15;19.30;99.90
43227;DHT22;28839;52.404;9.808;2022-09-09T11:45:21;19.10;99.90
43227;DHT22;28839;52.404;9.808;2022-09-09T11:52:22;18.00;99.90
43227;DHT22;28839;52.404;9.808;2022-09-09T11:59:23;17.10;99.90
43227;DHT22;28839;52.404;9.808;2022-09-09T12:06:28;16.60;99.90
43227;DHT22;28839;52.404;9.808;2022-09-09T12:13:26;16.60;99.90
43227;DHT22;28839;52.404;9.808;2022-09-09T12:20:23;16.50;99.90
43227;DHT22;28839;52.404;9.808;2022-09-09T12:27:23;16.30;99.90
43227;DHT22;28839;52.404;9.808;2022-09-09T12:34:38;16.30;99.90
43227;DHT22;28839;52.404;9.808;2022-09-09T12:41:35;16.50;99.90
43227;DHT22;28839;52.404;9.808;2022-09-09T12:48:36;17.20;99.90
43227;DHT22;28839;52.404;9.808;2022-09-09T12:55:32;17.80;99.90
43227;DHT22;28839;52.404;9.808;2022-09-09T13:02:30;18.60;99.90
43227;DHT22;28839;52.404;9.808;2022-09-09T13:09:24;18.50;99.90
43227;DHT22;28839;52.404;9.808;2022-09-09T13:16:20;19.20;99.90
43227;DHT22;28839;52.404;9.808;2022-09-09T13:23:18;19.70;99.90
43227;DHT22;28839;52.404;9.808;2022-09-09T13:51:29;17.70;99.90
43227;DHT22;28839;52.404;9.808;2022-09-09T13:58:25;18.00;99.90
43227;DHT22;28839;52.404;9.808;2022-09-09T14:19:09;18.50;99.90
43227;DHT22;28839;52.404;9.808;2022-09-09T14:26:02;18.20;99.90
43227;DHT22;28839;52.404;9.808;2022-09-09T14:32:58;18.90;99.90
43227;DHT22;28839;52.404;9.808;2022-09-09T14:39:52;18.80;99.90
43227;DHT22;28839;52.404;9.808;2022-09-09T14:46:46;19.00;99.90
43227;DHT22;28839;52.404;9.808;2022-09-09T14:53:44;18.90;99.90
43227;DHT22;28839;52.404;9.808;2022-09-09T15:00:38;19.60;99.90
43227;DHT22;28839;52.404;9.808;2022-09-09T15:07:31;19.80;99.90
43227;DHT22;28839;52.404;9.808;2022-09-09T15:14:27;19.80;99.90
43227;DHT22;28839;52.404;9.808;2022-09-09T15:21:24;20.00;99.90
43227;DHT22;28839;52.404;9.808;2022-09-09T15:28:18;19.70;99.90
43227;DHT22;28839;52.404;9.808;2022-09-09T15:35:13;20.10;99.90
43227;DHT22;28839;52.404;9.808;2022-09-09T15:42:07;20.00;99.90
43227;DHT22;28839;52.404;9.808;2022-09-09T15:49:05;19.80;99.90
43227;DHT22;28839;52.404;9.808;2022-09-09T15:56:03;20.00;99.90
43227;DHT22;28839;52.404;9.808;2022-09-09T16:02:56;19.80;99.90
43227;DHT22;28839;52.404;9.808;2022-09-09T16:09:50;19.70;99.90
43227;DHT22;28839;52.404;9.808;2022-09-09T16:16:46;19.60;99.90
43227;DHT22;28839;52.404;9.808;2022-09-09T16:23:40;19.50;99.90
43227;DHT22;28839;52.404;9.808;2022-09-09T16:30:36;19.50;99.90
43227;DHT22;28839;52.404;9.808;2022-09-09T16:37:31;19.50;99.90
43227;DHT22;28839;52.404;9.808;2022-09-09T16:44:26;19.70;99.90
43227;DHT22;28839;52.404;9.808;2022-09-09T16:51:22;19.80;99.90
43227;DHT22;28839;52.404;9.808;2022-09-09T16:58:18;19.50;99.90
43227;DHT22;28839;52.404;9.808;2022-09-09T17:05:12;19.20;99.90
43227;DHT22;28839;52.404;9.808;2022-09-09T17:12:07;18.70;99.90
43227;DHT22;28839;52.404;9.808;2022-09-09T17:19:03;18.30;99.90
43227;DHT22;28839;52.404;9.808;2022-09-09T17:25:57;18.20;99.90
43227;DHT22;28839;52.404;9.808;2022-09-09T17:32:52;18.30;99.90
43227;DHT22;28839;52.404;9.808;2022-09-09T17:39:47;18.40;99.90
43227;DHT22;28839;52.404;9.808;2022-09-09T17:46:42;18.10;99.90
43227;DHT22;28839;52.404;9.808;2022-09-09T17:53:38;17.80;99.90
43227;DHT22;28839;52.404;9.808;2022-09-09T18:00:33;18.10;99.90
43227;DHT22;28839;52.404;9.808;2022-09-09T18:07:29;18.00;99.90
43227;DHT22;28839;52.404;9.808;2022-09-09T18:14:24;17.70;99.90
43227;DHT22;28839;52.404;9.808;2022-09-09T18:21:20;17.70;99.90
43227;DHT22;28839;52.404;9.808;2022-09-09T18:28:15;17.50;99.90
43227;DHT22;28839;52.404;9.808;2022-09-09T18:35:09;17.60;99.90
43227;DHT22;28839;52.404;9.808;2022-09-09T18:42:05;17.70;99.90
43227;DHT22;28839;52.404;9.808;2022-09-09T18:48:59;17.40;99.90
43227;DHT22;28839;52.404;9.808;2022-09-09T18:55:57;17.20;99.90
43227;DHT22;28839;52.404;9.808;2022-09-09T20:05:09;16.20;99.90
43227;DHT22;28839;52.404;9.808;2022-09-09T20:12:05;16.00;99.90
43227;DHT22;28839;52.404;9.808;2022-09-09T20:19:01;15.90;99.90
43227;DHT22;28839;52.404;9.808;2022-09-09T20:26:00;15.90;99.90
43227;DHT22;28839;52.404;9.808;2022-09-09T20:32:55;15.70;99.90
43227;DHT22;28839;52.404;9.808;2022-09-09T20:39:49;15.70;99.90
43227;DHT22;28839;52.404;9.808;2022-09-09T20:46:46;15.70;99.90
43227;DHT22;28839;52.404;9.808;2022-09-09T20:53:40;15.70;99.90
43227;DHT22;28839;52.404;9.808;2022-09-09T21:00:34;15.60;99.90
43227;DHT22;28839;52.404;9.808;2022-09-09T21:07:29;15.60;99.90
43227;DHT22;28839;52.404;9.808;2022-09-09T21:14:23;15.40;99.90
43227;DHT22;28839;52.404;9.808;2022-09-09T21:21:19;15.10;99.90
43227;DHT22;28839;52.404;9.808;2022-09-09T21:28:17;15.30;99.90
43227;DHT22;28839;52.404;9.808;2022-09-09T21:35:11;15.30;99.90
43227;DHT22;28839;52.404;9.808;2022-09-09T21:42:05;15.20;99.90
43227;DHT22;28839;52.404;9.808;2022-09-09T21:49:00;15.10;99.90
43227;DHT22;28839;52.404;9.808;2022-09-09T21:55:59;15.00;99.90
43227;DHT22;28839;52.404;9.808;2022-09-09T22:02:54;15.10;99.90
43227;DHT22;28839;52.404;9.808;2022-09-09T22:09:49;15.00;99.90
43227;DHT22;28839;52.404;9.808;2022-09-09T22:16:43;15.00;99.90
43227;DHT22;28839;52.404;9.808;2022-09-09T22:23:37;15.20;99.90
43227;DHT22;28839;52.404;9.808;2022-09-09T22:30:32;15.10;99.90
43227;DHT22;28839;52.404;9.808;2022-09-09T22:37:26;15.00;99.90
43227;DHT22;28839;52.404;9.808;2022-09-09T22:44:21;15.00;99.90
43227;DHT22;28839;52.404;9.808;2022-09-09T22:51:17;15.10;99.90
43227;DHT22;28839;52.404;9.808;2022-09-09T22:58:10;15.10;99.90
43227;DHT22;28839;52.404;9.808;2022-09-09T23:05:05;15.00;99.90
43227;DHT22;28839;52.404;9.808;2022-09-09T23:12:01;14.90;99.90
43227;DHT22;28839;52.404;9.808;2022-09-09T23:18:56;14.90;99.90
43227;DHT22;28839;52.404;9.808;2022-09-09T23:25:50;14.80;99.90
43227;DHT22;28839;52.404;9.808;2022-09-09T23:32:47;14.70;99.90
43227;DHT22;28839;52.404;9.808;2022-09-09T23:39:41;14.80;99.90
43227;DHT22;28839;52.404;9.808;2022-09-09T23:46:35;14.90;99.90
43227;DHT22;28839;52.404;9.808;2022-09-09T23:53:30;14.80;99.90
